Skip to main content.
 TIME   TEMPERATURE   WINDSPEED   DIRECTION   HUMIDITY   BAROMETER   RAINFALL 
15:50 35.0°C (95.0°F) 22.2 kmh (13.8 mph) WSW 28% 1013.9hPa (29.94 inHg) 0.0mm (0.00 in.)
14:50 36.0°C (96.8 °F) 20.4 kmh (12.7 mph) WSW 26% 1013.9hPa (29.94 inHg) 0.0mm (0.00 in.)
13:50 36.0°C (96.8 °F) 20.4 kmh (12.7 mph) SW 25% 1013.9hPa (29.94 inHg) 0.0mm (0.00 in.)
12:50 37.0°C (98.6 °F) 16.7 kmh (10.4 mph) WSW 19% 1014.9hPa (29.97 inHg) 0.0mm (0.00 in.)
11:50 37.0°C (98.6 °F) 16.7 kmh (10.4 mph) WSW 19% 1014.9hPa (29.97 inHg) 0.0mm (0.00 in.)
10:50 36.0°C (96.8 °F) 13.0 kmh (8.1 mph) W 22% 1014.9hPa (29.97 inHg) 0.0mm (0.00 in.)
9:50 34.0°C (93.2 °F) 9.3 kmh (5.8 mph) WNW 26% 1014.9hPa (29.97 inHg) 0.0mm (0.00 in.)
8:50 32.0°C (89.6 °F) 5.6 kmh (3.5 mph) NW 29% 1014.9hPa (29.97 inHg) 0.0mm (0.00 in.)
7:50 28.0°C (82.4 °F) 5.6 kmh (3.5 mph) NW 37% 1013.9hPa (29.94 inHg) 0.0mm (0.00 in.)
6:50 26.0°C (78.8 °F) 9.3 kmh (5.8 mph) NW 39% 1013.9hPa (29.94 inHg) 0.0mm (0.00 in.)
5:50 26.0°C (78.8 °F) 7.4 kmh (4.6 mph) WNW 41% 1013.9hPa (29.94 inHg) 0.0mm (0.00 in.)
4:50 26.0°C (78.8 °F) 7.4 kmh (4.6 mph) WNW 41% 1013.9hPa (29.94 inHg) 0.0mm (0.00 in.)
3:50 26.0°C (78.8 °F) 3.7 kmh (2.3 mph) W 39% 1013.9hPa (29.94 inHg) 0.0mm (0.00 in.)
2:50 27.0°C (80.6 °F) 3.7 kmh (2.3 mph) WNW 36% 1014.9hPa (29.97 inHg) 0.0mm (0.00 in.)
1:50 27.0°C (80.6 °F) 3.7 kmh (2.3 mph) WNW 34% 1014.9hPa (29.97 inHg) 0.0mm (0.00 in.)
0:50 28.0°C (82.4 °F) 7.4 kmh (4.6 mph) W 32% 1014.9hPa (29.97 inHg) 0.0mm (0.00 in.)
23:49 28.0°C (82.4 °F) 5.6 kmh (3.5 mph) NW 32% 1014.9hPa (29.97 inHg) 0.0mm (0.00 in.)
22:49 29.0°C (84.2 °F) 9.3 kmh (5.8 mph) NNW 28% 1014.9hPa (29.97 inHg) 0.0mm (0.00 in.)
21:49 30.0°C (86.0 °F) 11.1 kmh (6.9 mph) NNW 27% 1014.9hPa (29.97 inHg) 0.0mm (0.00 in.)
20:49 31.0°C (87.8 °F) 18.5 kmh (11.5 mph) NW 27% 1013.9hPa (29.94 inHg) 0.0mm (0.00 in.)
19:49 33.0°C (91.4 °F) 14.8 kmh (9.2 mph) NW 26% 1013.9hPa (29.94 inHg) 0.0mm (0.00 in.)
18:49 35.0°C (95.0 °F) 20.4 kmh (12.7 mph) NW 24% 1013.9hPa (29.94 inHg) 0.0mm (0.00 in.)
17:49 35.0°C (95.0 °F) 24.1 kmh (15.0 mph) NW 26% 1014.9hPa (29.97 inHg) 0.0mm (0.00 in.)
16:49 36.0°C (96.8 °F) 24.1 kmh (15.0 mph) NW 26% 1014.9hPa (29.97 inHg) 0.0mm (0.00 in.)